x

Capers Nearshore (cap 2) (41029) Weather Station

12:08am - Sat 25th Nov 2017 All times are EST. -5 hours from GMT.

  • Wind
    11mph, 16mph gusts
  • Sea Temp 60°f
  • Air Temp 51°f
  • Sea Pressure 1014mb
  • Capers Nearshore (cap 2)
  • Capers Nearshore (cap 2)

More Historic Weather Station data

Upgrade to MSW Pro to gain access to the past 30 days of data for over 8000 Wavebouys and Weather Stations around the globe.

Join

Comparision Forecast

View Surf forecast
   
Sat 11/25 12:08am 11 16 mph 1014mb 60f 51f
Fri 11/24 11:08pm 11 16 mph 1014mb 60f 51f
10:08pm 13 18 mph 1013.9mb 60f 53f
9:08pm 11 16 mph 1013.6mb 60f 53f
8:08pm 13 20 mph 1013.6mb 60f 54f
7:08pm 13 16 mph 1013.6mb 60f 55f
6:08pm 13 20 mph 1013mb 60f 56f
5:08pm 13 20 mph 1012.5mb 60f 58f
4:08pm 11 18 mph 1012.4mb 60f 58f
3:08pm 11 16 mph 1012.4mb 61f 56f
2:08pm 16 22 mph 1012.4mb 61f 54f
1:08pm 16 22 mph 1013mb 61f 53f
12:08pm 20 25 mph 1013.6mb 61f 52f
11:08am 18 27 mph 1014.5mb 61f 50f
10:08am 22 29 mph 1014.7mb 61f 48f
9:08am 20 27 mph 1014.8mb 60f 48f
8:08am 22 31 mph 1014.3mb 60f 48f
7:08am 18 27 mph 1014.5mb 60f 48f
6:08am 20 27 mph 1014.1mb 61f 48f
5:08am 20 29 mph 1013.8mb 61f 49f
3:08am 20 27 mph 1013.7mb 61f 48f
2:08am 18 25 mph 1013.9mb 61f 49f
1:08am 20 27 mph 1014.2mb 61f 48f
12:08am 18 25 mph 1014.8mb 61f 49f
Thu 11/23 11:08pm 20 27 mph 1014.9mb 61f 50f
10:08pm 18 25 mph 1015.1mb 61f 50f
9:08pm 20 25 mph 1015.3mb 61f 48f
8:08pm 20 27 mph 1015.2mb 61f 47f
7:08pm 20 29 mph 1014.4mb 61f 48f
6:08pm 22 29 mph 1015.2mb 61f 46f
5:08pm 18 25 mph 1015.4mb 61f 47f
4:08pm 20 25 mph 1014.7mb 61f 47f
3:08pm 20 27 mph 1014.9mb 61f 48f
2:08pm 18 25 mph 1015.7mb 61f 48f
1:08pm 18 27 mph 1015.9mb 62f 50f
12:08pm 18 25 mph 1016.3mb 62f 51f
11:08am 20 27 mph 1016.9mb 62f 52f
10:08am 20 27 mph 1017.7mb 62f 53f
9:08am 18 25 mph 1017.7mb 62f 52f
8:08am 18 22 mph 1017.7mb 61f 52f
7:08am 18 25 mph 1017.3mb 61f 52f
6:08am 20 27 mph 1016.9mb 61f 51f
5:08am 20 27 mph 1017mb 62f 52f
4:08am 18 27 mph 1017.1mb 62f 53f
3:08am 22 29 mph 1016.8mb 62f 54f
2:08am 18 25 mph 1016.8mb 62f 56f
1:08am 16 25 mph 1017.6mb 62f 57f
12:08am 18 25 mph 1018mb 62f 57f
Wed 11/22 11:08pm 18 25 mph 1018mb 62f 58f
10:08pm 16 22 mph 1017.6mb 62f 58f
9:08pm 11 16 mph 1017.5mb 62f 58f
8:08pm 7 9 mph 1017mb 62f 59f
7:08pm 2 4 mph 1016.7mb 62f 59f
6:08pm 2 4 mph 1016.4mb 63f 60f
5:08pm 2 2 mph 1015.5mb 62f 62f
4:08pm 2 4 mph 1014.9mb 63f 69f
3:08pm 2 4 mph 1014.7mb 63f 67f
2:08pm 4 9 mph 1014.5mb 62f 65f
1:08pm 11 13 mph 1014.8mb 62f 63f
12:08pm 9 13 mph 1015.3mb 62f 63f
11:08am 13 18 mph 1016mb 62f 61f
10:08am 7 11 mph 1016.7mb 62f 62f
9:08am 7 11 mph 1016mb 62f 62f
8:08am 9 13 mph 1014.9mb 62f 59f
7:08am 13 20 mph 1014.2mb 62f 58f
6:08am 13 20 mph 1013.8mb 62f 59f
5:08am 11 16 mph 1013.4mb 62f 59f
4:08am 9 18 mph 1013.5mb 62f 59f
3:08am 7 11 mph 1013.5mb 62f 59f
12:08am 11 16 mph 1014.8mb 62f 60f
Tue 11/21 11:08pm 7 13 mph 1015.4mb 62f 61f
10:08pm 2 9 mph 1015.4mb 62f 61f
9:08pm 2 4 mph 1015.5mb 62f 62f
8:08pm 7 11 mph 1015.8mb 62f 63f
7:08pm 11 18 mph 1015.5mb 62f 60f
6:08pm 11 16 mph 1016.1mb 62f 60f
5:08pm 11 16 mph 1016.6mb 62f 60f
4:08pm 13 18 mph 1016.9mb 62f 61f
3:08pm 13 18 mph 1017.2mb 62f 60f
2:08pm 16 22 mph 1017.7mb 62f 60f
1:08pm 16 22 mph 1018.2mb 62f 60f
12:08pm 16 22 mph 1019.2mb 63f 61f
11:08am 16 22 mph 1020.6mb 62f 61f
10:08am 16 22 mph 1021.2mb 62f 59f
9:08am 13 20 mph 1021.4mb 62f 58f
8:08am 16 22 mph 1021.6mb 62f 56f
7:08am 16 20 mph 1021.4mb 62f 56f